createdAt,value
2022-09-23T00:01:27.291Z,17.60
2022-09-23T00:03:56.490Z,16.10
2022-09-23T00:06:25.463Z,18.70
2022-09-23T00:08:54.615Z,13.70
2022-09-23T00:11:26.105Z,24.20
2022-09-23T00:13:58.905Z,15.00
2022-09-23T00:16:34.356Z,19.10
2022-09-23T00:19:05.059Z,18.20
2022-09-23T00:21:33.156Z,22.50
2022-09-23T00:24:02.467Z,15.10
2022-09-23T00:26:30.613Z,22.80
2022-09-23T00:28:58.761Z,17.60
2022-09-23T00:31:27.850Z,20.10
2022-09-23T00:33:58.303Z,15.30
2022-09-23T00:36:28.436Z,16.10
2022-09-23T00:38:57.301Z,18.60
2022-09-23T00:41:28.024Z,16.80
2022-09-23T00:44:00.909Z,15.00
2022-09-23T00:46:35.574Z,17.80
2022-09-23T00:49:11.181Z,21.60
2022-09-23T00:51:45.444Z,19.40
2022-09-23T00:54:13.632Z,13.70
2022-09-23T00:56:41.782Z,12.00
2022-09-23T00:59:11.351Z,24.90
2022-09-23T01:01:39.927Z,13.70
2022-09-23T01:04:08.858Z,21.00
2022-09-23T01:06:37.014Z,14.50
2022-09-23T01:09:05.353Z,17.40
2022-09-23T01:11:41.058Z,16.20
2022-09-23T01:14:37.093Z,20.60
2022-09-23T01:17:19.505Z,11.10
2022-09-23T01:20:16.310Z,16.80
2022-09-23T01:22:50.097Z,11.60
2022-09-23T01:26:04.039Z,9.70
2022-09-23T01:28:50.555Z,13.40
2022-09-23T01:31:32.114Z,10.20
2022-09-23T01:34:16.091Z,16.60
2022-09-23T01:36:51.760Z,13.70
2022-09-23T01:39:45.986Z,10.90
2022-09-23T01:42:43.016Z,10.50
2022-09-23T01:45:11.092Z,15.20
2022-09-23T01:48:25.391Z,13.70
2022-09-23T01:51:21.172Z,13.20
2022-09-23T01:54:00.107Z,10.60
2022-09-23T01:56:34.393Z,13.60
2022-09-23T01:59:17.214Z,18.40
2022-09-23T02:02:16.079Z,16.30
2022-09-23T02:04:54.280Z,11.90
2022-09-23T02:07:40.269Z,13.00
2022-09-23T02:10:25.590Z,12.40
2022-09-23T02:13:00.718Z,11.80
2022-09-23T02:15:35.370Z,11.80
2022-09-23T02:18:33.247Z,13.30
2022-09-23T02:21:06.402Z,11.60
2022-09-23T02:23:42.666Z,9.90
2022-09-23T02:26:35.807Z,10.70
2022-09-23T02:29:19.676Z,10.40
2022-09-23T02:31:50.700Z,14.00
2022-09-23T02:34:39.413Z,12.80
2022-09-23T02:37:37.327Z,7.90
2022-09-23T02:40:15.027Z,10.20
2022-09-23T02:43:05.850Z,9.50
2022-09-23T02:45:34.550Z,10.20
2022-09-23T02:48:22.274Z,9.40
2022-09-23T02:50:50.524Z,13.20
2022-09-23T02:53:18.928Z,10.00
2022-09-23T02:55:46.929Z,12.00
2022-09-23T02:58:15.040Z,9.90
2022-09-23T03:01:16.049Z,11.30
2022-09-23T03:03:57.326Z,12.90
2022-09-23T03:06:32.139Z,10.60
2022-09-23T03:09:11.443Z,10.40
2022-09-23T03:11:46.007Z,13.30
2022-09-23T03:14:39.639Z,10.60
2022-09-23T03:17:21.771Z,13.10
2022-09-23T03:19:58.773Z,13.90
2022-09-23T03:22:56.325Z,12.40
2022-09-23T03:25:26.961Z,14.00
2022-09-23T03:28:01.060Z,12.50
2022-09-23T03:33:01.154Z,12.00
2022-09-23T03:35:32.212Z,11.30
2022-09-23T03:38:16.141Z,13.60
2022-09-23T03:40:47.866Z,16.60
2022-09-23T03:43:16.816Z,12.50
2022-09-23T03:45:46.935Z,11.90
2022-09-23T03:48:15.843Z,17.90
2022-09-23T03:50:44.651Z,15.10
2022-09-23T03:53:13.889Z,15.90
2022-09-23T03:55:41.959Z,16.90
2022-09-23T03:58:09.967Z,16.30
2022-09-23T04:00:38.096Z,18.60
2022-09-23T04:03:10.882Z,17.10
2022-09-23T04:05:39.749Z,13.00
2022-09-23T04:08:07.949Z,15.60
2022-09-23T04:10:36.077Z,22.80
2022-09-23T04:13:17.355Z,13.60
2022-09-23T04:15:45.419Z,19.50
2022-09-23T04:18:13.439Z,21.00
2022-09-23T04:20:41.567Z,18.90
2022-09-23T04:23:09.598Z,17.30
2022-09-23T04:25:47.619Z,17.60
2022-09-23T04:28:16.518Z,16.40
2022-09-23T04:30:46.195Z,18.60
2022-09-23T04:33:14.832Z,19.40
2022-09-23T04:35:45.849Z,12.60
2022-09-23T04:38:13.990Z,21.10
2022-09-23T04:40:42.137Z,18.10
2022-09-23T04:43:13.468Z,17.40
2022-09-23T04:45:45.397Z,19.90
2022-09-23T04:48:14.091Z,15.70
2022-09-23T04:50:42.571Z,22.50
2022-09-23T04:53:10.676Z,17.90
2022-09-23T04:55:38.705Z,14.40
2022-09-23T04:58:09.222Z,18.00
2022-09-23T05:00:38.469Z,16.00
2022-09-23T05:03:07.289Z,14.40
2022-09-23T05:05:35.297Z,20.20
2022-09-23T05:08:03.428Z,18.90
2022-09-23T05:10:31.505Z,17.30
2022-09-23T05:12:59.585Z,15.00
2022-09-23T05:15:27.785Z,18.60
2022-09-23T05:17:59.234Z,24.70
2022-09-23T05:20:27.410Z,13.90
2022-09-23T05:22:56.328Z,16.50
2022-09-23T05:25:24.487Z,13.70
2022-09-23T05:27:52.773Z,19.40
2022-09-23T05:30:20.844Z,15.00
2022-09-23T05:32:48.855Z,20.30
2022-09-23T05:35:17.030Z,15.80
2022-09-23T05:37:45.059Z,19.70
2022-09-23T05:40:13.132Z,23.20
2022-09-23T05:42:41.337Z,14.70
2022-09-23T05:45:09.885Z,14.90
2022-09-23T05:47:38.364Z,14.40
2022-09-23T05:50:07.302Z,16.60
2022-09-23T05:52:35.462Z,15.90
2022-09-23T05:55:03.729Z,18.80
2022-09-23T05:57:32.786Z,17.40
2022-09-23T06:00:01.184Z,18.60
2022-09-23T06:02:29.475Z,16.10
2022-09-23T06:04:57.592Z,20.10
2022-09-23T06:07:25.763Z,20.10
2022-09-23T06:09:54.156Z,19.20
2022-09-23T06:12:22.638Z,19.60
2022-09-23T06:14:50.828Z,18.60
2022-09-23T06:17:18.926Z,19.30
2022-09-23T06:19:47.077Z,16.80
2022-09-23T06:22:17.090Z,24.40
2022-09-23T06:24:45.129Z,17.50
2022-09-23T06:27:13.569Z,23.60
2022-09-23T06:29:41.637Z,14.70
2022-09-23T06:32:09.745Z,13.70
2022-09-23T06:34:49.482Z,22.10
2022-09-23T06:37:20.791Z,20.50
2022-09-23T06:39:49.694Z,17.10
2022-09-23T06:42:17.772Z,19.00
2022-09-23T06:44:45.860Z,16.70
2022-09-23T06:47:14.531Z,20.70
2022-09-23T06:49:42.587Z,15.10
2022-09-23T06:52:11.137Z,13.20
2022-09-23T06:54:39.237Z,17.50
2022-09-23T06:57:07.345Z,13.70
2022-09-23T06:59:35.845Z,15.40
2022-09-23T07:02:04.212Z,19.40
2022-09-23T07:04:32.493Z,17.80
2022-09-23T07:07:00.608Z,13.60
2022-09-23T07:09:29.226Z,11.80
2022-09-23T07:11:57.234Z,15.00
2022-09-23T07:14:25.523Z,13.50
2022-09-23T07:16:54.224Z,17.10
2022-09-23T07:19:22.350Z,17.20
2022-09-23T07:21:50.409Z,17.80
2022-09-23T07:24:18.558Z,20.20
2022-09-23T07:26:46.645Z,22.30
2022-09-23T07:29:15.204Z,23.20
2022-09-23T07:31:43.295Z,25.70
2022-09-23T07:34:11.840Z,19.80
2022-09-23T07:36:41.078Z,21.30
2022-09-23T07:39:12.384Z,23.20
2022-09-23T07:41:44.609Z,20.40
2022-09-23T07:44:13.017Z,17.90
2022-09-23T07:46:41.483Z,16.00
2022-09-23T07:49:10.708Z,21.00
2022-09-23T07:51:41.307Z,19.00
2022-09-23T07:54:13.843Z,16.90
2022-09-23T07:56:43.740Z,25.60
2022-09-23T07:59:17.820Z,23.10
2022-09-23T08:04:24.081Z,21.40
2022-09-23T08:06:56.529Z,24.40
2022-09-23T08:09:28.792Z,24.20
2022-09-23T08:11:56.892Z,25.70
2022-09-23T08:14:25.276Z,23.80
2022-09-23T08:16:54.272Z,24.20
2022-09-23T08:19:22.411Z,19.20
2022-09-23T08:21:52.385Z,18.30
2022-09-23T08:24:24.242Z,19.80
2022-09-23T08:26:54.337Z,16.80
2022-09-23T08:29:24.467Z,14.30
2022-09-23T08:31:53.617Z,21.20
2022-09-23T08:34:23.621Z,19.40
2022-09-23T08:36:52.517Z,24.20
2022-09-23T08:39:21.254Z,22.60
2022-09-23T08:41:49.625Z,25.40
2022-09-23T08:44:25.323Z,22.80
2022-09-23T08:47:33.811Z,21.40
2022-09-23T08:50:13.595Z,20.00
2022-09-23T08:52:57.065Z,16.10
2022-09-23T08:55:40.686Z,16.50
2022-09-23T08:58:34.947Z,17.20
2022-09-23T09:01:10.386Z,16.70
2022-09-23T09:03:54.006Z,16.20
2022-09-23T09:07:24.680Z,18.10
2022-09-23T09:10:06.748Z,14.70
2022-09-23T09:12:43.582Z,16.30
2022-09-23T09:15:16.350Z,11.90
2022-09-23T09:18:12.358Z,10.70
2022-09-23T09:20:45.641Z,9.10
2022-09-23T09:23:24.503Z,11.80
2022-09-23T09:25:55.341Z,11.00
2022-09-23T09:28:40.172Z,10.10
2022-09-23T09:31:22.655Z,7.90
2022-09-23T09:34:06.446Z,9.10
2022-09-23T09:36:57.882Z,11.20
2022-09-23T09:39:27.609Z,10.80
2022-09-23T09:42:00.295Z,7.50
2022-09-23T09:44:45.098Z,7.90
2022-09-23T09:47:51.819Z,8.50
2022-09-23T09:50:47.562Z,9.60
2022-09-23T09:53:27.252Z,12.70
2022-09-23T09:56:04.872Z,11.40
2022-09-23T09:59:04.130Z,11.60
2022-09-23T10:01:34.682Z,9.30
2022-09-23T10:04:31.446Z,12.20
2022-09-23T10:07:13.412Z,13.20
2022-09-23T10:09:49.762Z,17.80
2022-09-23T10:12:22.029Z,13.80
2022-09-23T10:14:59.221Z,15.80
2022-09-23T10:17:33.211Z,18.90
2022-09-23T10:22:41.072Z,17.20
2022-09-23T10:25:19.486Z,17.70
2022-09-23T10:27:47.582Z,18.60
2022-09-23T10:30:15.634Z,18.10
2022-09-23T10:32:45.043Z,14.70
2022-09-23T10:35:16.539Z,14.30
2022-09-23T10:37:48.684Z,13.90
2022-09-23T10:40:48.527Z,11.50
2022-09-23T10:43:57.959Z,10.70
2022-09-23T10:46:47.669Z,8.90
2022-09-23T10:49:37.339Z,9.50
2022-09-23T10:52:19.374Z,9.60
2022-09-23T10:54:53.341Z,7.70
2022-09-23T10:57:46.522Z,7.90
2022-09-23T11:00:41.283Z,8.50
2022-09-23T11:03:27.896Z,7.90
2022-09-23T11:06:13.926Z,7.60
2022-09-23T11:09:08.682Z,8.40
2022-09-23T11:12:14.385Z,10.30
2022-09-23T11:14:45.484Z,8.80
2022-09-23T11:17:29.651Z,8.90
2022-09-23T11:20:03.244Z,8.70
2022-09-23T11:25:53.866Z,10.40
2022-09-23T11:28:51.131Z,9.60
2022-09-23T11:31:50.669Z,8.30
2022-09-23T11:34:47.417Z,11.20
2022-09-23T11:37:23.257Z,9.30
2022-09-23T11:40:30.794Z,6.70
2022-09-23T11:43:07.701Z,6.70
2022-09-23T11:45:46.506Z,6.80
2022-09-23T11:48:23.791Z,9.30
2022-09-23T11:50:57.547Z,8.20
2022-09-23T11:56:10.346Z,9.20
2022-09-23T11:58:50.127Z,9.00
2022-09-23T12:04:21.190Z,9.80
2022-09-23T12:07:08.471Z,13.40
2022-09-23T12:10:00.450Z,13.60
2022-09-23T12:12:53.141Z,12.10
2022-09-23T12:15:30.122Z,14.60
2022-09-23T12:18:18.376Z,13.90
2022-09-23T12:21:08.320Z,14.60
2022-09-23T12:23:47.673Z,13.60
2022-09-23T12:26:19.931Z,13.30
2022-09-23T12:28:53.066Z,15.70
2022-09-23T12:31:31.849Z,12.90
2022-09-23T12:34:09.206Z,14.10
2022-09-23T12:36:39.604Z,11.70
2022-09-23T12:39:30.530Z,11.40
2022-09-23T12:42:17.740Z,11.40
2022-09-23T12:44:48.688Z,15.00
2022-09-23T12:47:25.563Z,15.00
2022-09-23T12:49:54.899Z,12.50
2022-09-23T12:52:27.492Z,10.80
2022-09-23T12:54:58.403Z,10.70
2022-09-23T12:57:35.714Z,11.00
2022-09-23T13:00:07.087Z,10.10
2022-09-23T13:02:39.974Z,10.50
2022-09-23T13:05:26.833Z,14.10
2022-09-23T13:08:18.466Z,10.50
2022-09-23T13:10:58.671Z,10.90
2022-09-23T13:13:38.008Z,9.90
2022-09-23T13:16:33.240Z,12.20
2022-09-23T13:19:06.633Z,12.10
2022-09-23T13:21:45.845Z,14.70
2022-09-23T13:24:14.432Z,11.10
2022-09-23T13:26:47.837Z,11.70
2022-09-23T13:29:44.344Z,9.00
2022-09-23T13:32:24.076Z,8.60
2022-09-23T13:35:02.772Z,7.80
2022-09-23T13:37:47.707Z,7.20
2022-09-23T13:40:29.758Z,7.00
2022-09-23T13:43:02.421Z,7.10
2022-09-23T13:45:32.476Z,6.00
2022-09-23T13:48:08.349Z,8.10
2022-09-23T13:50:39.062Z,9.60
2022-09-23T13:53:14.384Z,8.60
2022-09-23T13:55:42.578Z,6.90
2022-09-23T13:58:13.713Z,7.40
2022-09-23T14:00:42.134Z,6.50
2022-09-23T14:03:31.162Z,8.20
2022-09-23T14:06:05.441Z,6.00
2022-09-23T14:08:33.905Z,5.40
2022-09-23T14:11:05.283Z,6.30
2022-09-23T14:13:41.440Z,4.40
2022-09-23T14:16:14.950Z,5.20
2022-09-23T14:18:49.679Z,7.20
2022-09-23T14:21:49.294Z,6.00
2022-09-23T14:24:19.562Z,5.30
2022-09-23T14:26:49.205Z,6.10
2022-09-23T14:29:39.377Z,6.80
2022-09-23T14:32:13.649Z,5.90
2022-09-23T14:35:05.222Z,7.40
2022-09-23T14:37:57.455Z,7.30
2022-09-23T14:40:34.859Z,7.70
2022-09-23T14:43:17.092Z,8.00
2022-09-23T14:45:48.027Z,7.20
2022-09-23T14:48:23.206Z,6.20
2022-09-23T14:50:56.387Z,6.00
2022-09-23T14:53:46.420Z,7.80
2022-09-23T14:56:17.164Z,10.10
2022-09-23T14:58:55.208Z,5.70
2022-09-23T15:01:33.638Z,5.80
2022-09-23T15:04:10.958Z,6.70
2022-09-23T15:06:43.161Z,5.40
2022-09-23T15:09:20.748Z,12.60
2022-09-23T15:11:51.976Z,4.70
2022-09-23T15:14:37.090Z,4.00
2022-09-23T15:17:25.854Z,4.00
2022-09-23T15:19:57.530Z,7.60
2022-09-23T15:22:26.098Z,5.70
2022-09-23T15:24:56.513Z,5.40
2022-09-23T15:27:34.600Z,4.10
2022-09-23T15:30:17.213Z,4.70
2022-09-23T15:32:46.682Z,3.40
2022-09-23T15:35:21.186Z,3.30
2022-09-23T15:37:51.715Z,4.80
2022-09-23T15:40:26.108Z,3.70
2022-09-23T15:42:57.017Z,3.30
2022-09-23T15:45:53.307Z,3.20
2022-09-23T15:48:29.530Z,4.50
2022-09-23T15:51:04.275Z,3.50
2022-09-23T15:53:33.143Z,3.70
2022-09-23T15:56:01.533Z,3.60
2022-09-23T15:58:29.931Z,4.40
2022-09-23T16:00:59.565Z,3.10
2022-09-23T16:03:30.783Z,6.40
2022-09-23T16:06:03.286Z,3.50
2022-09-23T16:08:33.147Z,4.30
2022-09-23T16:11:01.577Z,205.40
2022-09-23T16:13:29.779Z,66.70
2022-09-23T16:15:58.023Z,164.10
2022-09-23T16:18:26.185Z,137.80
2022-09-23T16:20:54.876Z,116.30
2022-09-23T16:23:35.281Z,42.40
2022-09-23T16:26:15.776Z,28.00
2022-09-23T16:28:46.367Z,40.40
2022-09-23T16:31:18.734Z,25.30
2022-09-23T16:33:48.451Z,50.70
2022-09-23T16:36:21.419Z,9.10
2022-09-23T16:38:50.250Z,13.60
2022-09-23T16:44:07.499Z,20.70
2022-09-23T16:52:07.674Z,15.40
2022-09-23T16:54:37.650Z,22.10
2022-09-23T16:57:05.711Z,12.30
2022-09-23T16:59:53.782Z,15.40
2022-09-23T17:02:40.676Z,15.30
2022-09-23T17:05:09.274Z,36.40
2022-09-23T17:07:38.226Z,26.60
2022-09-23T17:10:07.169Z,9.90
2022-09-23T17:12:35.362Z,9.50
2022-09-23T17:15:07.361Z,12.30
2022-09-23T17:17:37.681Z,7.40
2022-09-23T17:20:06.869Z,5.80
2022-09-23T17:28:06.547Z,5.60
2022-09-23T17:30:34.841Z,4.80
2022-09-23T17:33:02.852Z,4.50
2022-09-23T17:35:30.910Z,5.70
2022-09-23T17:37:58.897Z,5.40
2022-09-23T17:40:27.844Z,5.60
2022-09-23T17:48:32.234Z,10.00
2022-09-23T17:51:10.588Z,6.30
2022-09-23T17:53:46.013Z,5.20
2022-09-23T17:56:14.116Z,8.30
2022-09-23T17:58:43.261Z,7.90
2022-09-23T18:01:13.946Z,9.50
2022-09-23T18:03:45.753Z,6.80
2022-09-23T18:06:19.200Z,7.60
2022-09-23T18:08:49.215Z,5.10
2022-09-23T18:11:20.451Z,7.40
2022-09-23T18:13:54.203Z,7.10
2022-09-23T18:16:24.501Z,8.80
2022-09-23T18:18:54.402Z,7.40
2022-09-23T18:21:24.596Z,6.70
2022-09-23T18:23:53.083Z,6.30
2022-09-23T18:26:23.562Z,8.40
2022-09-23T18:28:55.757Z,6.10
2022-09-23T18:31:24.230Z,7.20
2022-09-23T18:33:54.404Z,7.80
2022-09-23T18:36:24.681Z,10.20
2022-09-23T18:38:53.170Z,8.00
2022-09-23T18:41:22.238Z,9.50
2022-09-23T18:43:50.500Z,9.20
2022-09-23T18:46:24.502Z,11.30
2022-09-23T18:49:12.250Z,8.00
2022-09-23T18:51:56.044Z,9.80
2022-09-23T18:54:28.529Z,8.30
2022-09-23T18:56:57.590Z,10.90
2022-09-23T18:59:29.508Z,10.70
2022-09-23T19:01:59.227Z,11.90
2022-09-23T19:04:27.673Z,13.40
2022-09-23T19:06:56.811Z,14.00
2022-09-23T19:09:25.655Z,12.70
2022-09-23T19:11:53.967Z,15.70
2022-09-23T19:14:22.462Z,12.30
2022-09-23T19:16:50.961Z,9.60
2022-09-23T19:19:19.165Z,8.90
2022-09-23T19:21:47.452Z,11.10
2022-09-23T19:24:20.607Z,9.20
2022-09-23T19:26:50.430Z,12.40
2022-09-23T19:29:19.908Z,11.70
2022-09-23T19:31:49.097Z,13.30
2022-09-23T19:34:20.321Z,17.50
2022-09-23T19:36:48.718Z,15.90
2022-09-23T19:39:22.358Z,15.10
2022-09-23T19:41:52.642Z,16.20
2022-09-23T19:44:20.850Z,15.40
2022-09-23T19:46:55.120Z,15.90
2022-09-23T19:49:25.549Z,15.80
2022-09-23T19:51:56.173Z,12.00
2022-09-23T19:54:27.663Z,18.60
2022-09-23T19:56:56.075Z,9.30
2022-09-23T19:59:26.615Z,14.00
2022-09-23T20:01:55.024Z,11.00
2022-09-23T20:04:23.253Z,12.00
2022-09-23T20:06:51.375Z,14.10
2022-09-23T20:09:19.505Z,10.10
2022-09-23T20:11:47.741Z,13.10
2022-09-23T20:14:15.778Z,12.10
2022-09-23T20:16:44.553Z,12.00
2022-09-23T20:19:13.715Z,8.80
2022-09-23T20:21:41.753Z,11.00
2022-09-23T20:24:12.030Z,15.00
2022-09-23T20:26:58.939Z,9.60
2022-09-23T20:29:27.061Z,8.30
2022-09-23T20:31:56.429Z,8.20
2022-09-23T20:34:24.645Z,11.70
2022-09-23T20:36:52.735Z,10.10
2022-09-23T20:39:21.206Z,11.20
2022-09-23T20:41:49.891Z,9.10
2022-09-23T20:44:18.610Z,9.00
2022-09-23T20:46:48.954Z,13.60
2022-09-23T20:49:18.118Z,13.40
2022-09-23T20:51:50.165Z,12.20
2022-09-23T20:54:21.190Z,8.10
2022-09-23T20:56:49.340Z,9.70
2022-09-23T20:59:18.637Z,9.30
2022-09-23T21:01:47.801Z,11.40
2022-09-23T21:04:16.394Z,9.20
2022-09-23T21:06:44.564Z,10.50
2022-09-23T21:09:12.692Z,11.50
2022-09-23T21:11:41.030Z,11.90
2022-09-23T21:14:09.864Z,11.20
2022-09-23T21:16:38.812Z,8.40
2022-09-23T21:19:08.280Z,11.60
2022-09-23T21:21:36.423Z,11.20
2022-09-23T21:24:31.397Z,10.00
2022-09-23T21:26:52.760Z,12.80
2022-09-23T21:29:21.192Z,9.90
2022-09-23T21:31:49.918Z,10.30
2022-09-23T21:34:19.415Z,11.20
2022-09-23T21:36:48.179Z,10.90
2022-09-23T21:39:16.788Z,9.60
2022-09-23T21:41:45.230Z,11.20
2022-09-23T21:44:13.392Z,11.40
2022-09-23T21:46:41.725Z,15.10
2022-09-23T21:49:09.950Z,10.90
2022-09-23T21:51:42.994Z,10.30
2022-09-23T21:54:15.793Z,10.00
2022-09-23T21:56:44.867Z,9.70
2022-09-23T21:59:13.142Z,12.20
2022-09-23T22:01:44.642Z,8.80
2022-09-23T22:04:19.204Z,10.60
2022-09-23T22:06:49.237Z,11.70
2022-09-23T22:09:19.983Z,11.70
2022-09-23T22:12:09.807Z,14.80
2022-09-23T22:14:39.288Z,17.50
2022-09-23T22:17:11.537Z,14.00
2022-09-23T22:19:45.888Z,13.40
2022-09-23T22:22:18.541Z,22.30
2022-09-23T22:24:47.909Z,21.10
2022-09-23T22:27:19.627Z,28.10
2022-09-23T22:30:06.691Z,20.20
2022-09-23T22:32:40.795Z,19.50
2022-09-23T22:37:40.477Z,19.80
2022-09-23T22:40:14.206Z,18.60
2022-09-23T22:42:43.040Z,18.10
2022-09-23T22:45:12.628Z,28.90
2022-09-23T22:47:45.690Z,23.60
2022-09-23T22:50:14.809Z,23.90
2022-09-23T22:52:43.566Z,27.90
2022-09-23T22:55:12.089Z,29.40
2022-09-23T22:57:40.529Z,26.50
2022-09-23T23:00:09.676Z,25.20
2022-09-23T23:02:37.756Z,26.20
2022-09-23T23:05:06.570Z,34.90
2022-09-23T23:07:35.159Z,32.80
2022-09-23T23:10:04.920Z,36.40
2022-09-23T23:12:33.647Z,33.20
2022-09-23T23:15:01.715Z,30.50
2022-09-23T23:17:30.027Z,33.60
2022-09-23T23:19:58.466Z,39.80
2022-09-23T23:22:28.621Z,31.30
2022-09-23T23:24:56.871Z,27.60
2022-09-23T23:27:25.092Z,27.70
2022-09-23T23:29:53.196Z,35.00
2022-09-23T23:32:21.257Z,28.00
2022-09-23T23:34:49.296Z,28.30
2022-09-23T23:37:20.783Z,38.80
2022-09-23T23:39:49.301Z,38.30
2022-09-23T23:42:17.814Z,33.10
2022-09-23T23:44:45.962Z,36.90
2022-09-23T23:47:14.119Z,28.70
2022-09-23T23:49:42.155Z,34.50
2022-09-23T23:52:10.436Z,27.10
2022-09-23T23:54:39.234Z,35.00
2022-09-23T23:57:07.333Z,27.90
2022-09-23T23:59:35.771Z,33.20
